Blue Ridge Observed Data For Previous 48 Hours

Caption
Day and Hour Reservoir Elevation (behind dam)* Tailwater Elevation (below dam)* Average Hourly Discharge*
8/20/2017 2 AM EDT 1,681.89 1,540.60 150
8/20/2017 3 AM EDT 1,681.89 1,540.60 150
8/20/2017 4 AM EDT 1,681.85 1,540.60 150
8/20/2017 5 AM EDT 1,681.90 1,540.60 150
8/20/2017 6 AM EDT 1,681.90 1,540.61 150
8/20/2017 7 AM EDT 1,681.90 1,540.61 150
8/20/2017 8 AM EDT 1,681.87 1,540.61 150
8/20/2017 9 AM EDT 1,681.87 1,540.61 150
8/20/2017 10 AM EDT 1,681.89 1,540.61 150
8/20/2017 11 AM EDT 1,681.86 1,540.61 150
8/20/2017 12 PM EDT 1,681.85 1,540.61 150
8/20/2017 1 PM EDT 1,681.84 1,540.61 150
8/20/2017 2 PM EDT 1,681.81 1,540.61 150
8/20/2017 3 PM EDT 1,681.84 1,540.60 150
8/20/2017 4 PM EDT 1,681.84 1,540.55 150
8/20/2017 5 PM EDT 1,681.81 1,543.02 1,491
8/20/2017 6 PM EDT 1,681.78 1,543.13 1,553
8/20/2017 7 PM EDT 1,681.75 1,543.13 1,547
8/20/2017 8 PM EDT 1,681.71 1,543.11 1,549
8/20/2017 9 PM EDT 1,681.67 1,540.72 233
8/20/2017 10 PM EDT 1,681.69 1,540.61 150
8/20/2017 11 PM EDT 1,681.70 1,540.61 149
8/21/2017 12 AM EDT 1,681.71 1,540.60 150
8/21/2017 1 AM EDT 1,681.74 1,540.60 149
8/21/2017 2 AM EDT 1,681.72 1,540.61 150
8/21/2017 3 AM EDT 1,681.72 1,540.61 149
8/21/2017 4 AM EDT 1,681.75 1,540.60 150
8/21/2017 5 AM EDT 1,681.78 1,540.60 149
8/21/2017 6 AM EDT 1,681.77 1,540.60 150
8/21/2017 7 AM EDT 1,681.79 1,540.61 149
8/21/2017 8 AM EDT 1,681.78 1,540.61 150
8/21/2017 9 AM EDT 1,681.76 1,540.61 150
8/21/2017 10 AM EDT 1,681.77 1,540.60 150
8/21/2017 11 AM EDT 1,681.75 1,540.61 150
8/21/2017 12 PM EDT 1,681.71 1,540.61 150
8/21/2017 1 PM EDT 1,681.71 1,540.61 149
8/21/2017 2 PM EDT 1,681.71 1,540.61 150
8/21/2017 3 PM EDT 1,681.74 1,540.61 150
8/21/2017 4 PM EDT 1,681.71 1,540.60 150
8/21/2017 5 PM EDT 1,681.75 1,540.57 150
8/21/2017 6 PM EDT 1,681.73 1,543.03 1,490
8/21/2017 7 PM EDT 1,681.64 1,543.15 1,559
8/21/2017 8 PM EDT 1,681.66 1,543.14 1,556
8/21/2017 9 PM EDT 1,681.59 1,543.15 1,565
8/21/2017 10 PM EDT 1,681.60 1,540.72 234
8/21/2017 11 PM EDT 1,681.59 1,540.61 150
8/22/2017 12 AM EDT 1,681.61 1,540.61 149
8/22/2017 1 AM EDT 1,681.62 1,540.61 150
8/22/2017 2 AM EDT 1,681.65 1,540.61 149
8/22/2017 3 AM EDT 1,681.66 1,540.60 150
8/22/2017 4 AM EDT 1,681.64 1,540.60 149
8/22/2017 5 AM EDT 1,681.67 1,540.61 150
8/22/2017 6 AM EDT 1,681.65 1,540.61 149
8/22/2017 7 AM EDT 1,681.69 1,540.60 150
8/22/2017 8 AM EDT 1,681.66 1,540.60 149
8/22/2017 9 AM EDT 1,681.67 1,540.61 150
8/22/2017 10 AM EDT 1,681.61 1,540.61 150
8/22/2017 11 AM EDT 1,681.59 1,540.61 150
8/22/2017 12 PM EDT 1,681.63 1,540.60 150

Elevations are in feet above sea level. Discharges are in cubic feet per second and are reported at the end of the hour.